Time;durP1;ratioP1;P1;durP2;ratioP2;P2;SDS_P1;SDS_P2;PMS_P1;PMS_P2;Temp;Humidity;BMP_temperature;BMP_pressure;BME280_temperature;BME280_humidity;BME280_pressure;Samples;Min_cycle;Max_cycle;Signal;HPM_P1;HPM_P2
2021/12/15 00:01:10;;;;;;;;;;;9.70;99.90;;;;;;5081760;28;19912;-61
2021/12/15 00:03:36;;;;;;;;;;;9.80;99.90;;;;;;5080828;28;19973;-61
2021/12/15 00:06:02;;;;;;;;;;;9.80;99.90;;;;;;5084643;28;19912;-61
2021/12/15 00:08:28;;;;;;;;;;;9.60;99.90;;;;;;5082981;28;19911;-61
2021/12/15 00:10:53;;;;;;;;;;;9.70;99.90;;;;;;5084122;28;19931;-60
2021/12/15 00:13:20;;;;;;;;;;;9.90;99.90;;;;;;5083898;28;20259;-61
2021/12/15 00:15:47;;;;;;;;;;;9.80;99.90;;;;;;5080386;28;19908;-61
2021/12/15 00:18:12;;;;;;;;;;;9.70;99.90;;;;;;5083264;28;20074;-61
2021/12/15 00:20:39;;;;;;;;;;;9.80;99.90;;;;;;5084549;28;19923;-61
2021/12/15 00:23:04;;;;;;;;;;;9.70;99.90;;;;;;5084192;28;19919;-61
2021/12/15 00:25:31;;;;;;;;;;;9.70;99.90;;;;;;5082617;28;19912;-61
2021/12/15 00:27:57;;;;;;;;;;;9.70;99.90;;;;;;5083742;28;20378;-61
2021/12/15 00:30:22;;;;;;;;;;;9.70;99.90;;;;;;5084399;28;19916;-61
2021/12/15 00:32:49;;;;;;;;;;;9.70;99.90;;;;;;5082485;28;19958;-61
2021/12/15 00:35:14;;;;;;;;;;;9.60;99.90;;;;;;5084469;28;20391;-61
2021/12/15 00:37:41;;;;;;;;;;;9.50;99.90;;;;;;5083011;28;19999;-61
2021/12/15 00:40:07;;;;;;;;;;;9.50;99.90;;;;;;5083305;28;19908;-61
2021/12/15 00:42:33;;;;;;;;;;;9.70;99.90;;;;;;5080995;28;19913;-61
2021/12/15 00:44:59;;;;;;;;;;;9.80;99.90;;;;;;5081237;28;19953;-61
2021/12/15 00:47:24;;;;;;;;;;;9.80;99.90;;;;;;5078854;28;19919;-61
2021/12/15 00:49:51;;;;;;;;;;;9.80;99.90;;;;;;5081405;28;19973;-61
2021/12/15 00:52:16;;;;;;;;;;;9.80;99.90;;;;;;5076025;28;20457;-61
2021/12/15 00:54:42;;;;;;;;;;;9.80;99.90;;;;;;5082351;28;19912;-61
2021/12/15 00:57:07;;;;;;;;;;;9.90;99.90;;;;;;5080057;28;20358;-61
2021/12/15 00:59:33;;;;;;;;;;;9.80;99.90;;;;;;5080309;28;19919;-61
2021/12/15 01:01:59;;;;;;;;;;;9.80;99.90;;;;;;5082291;28;19911;-62
2021/12/15 01:04:25;;;;;;;;;;;9.80;99.90;;;;;;5082741;28;20374;-61
2021/12/15 01:06:53;;;;;;;;;;;9.90;99.90;;;;;;5083612;28;19912;-61
2021/12/15 01:09:26;;;;;;;;;;;9.80;99.90;;;;;;5077425;28;19912;-61
2021/12/15 01:12:25;;;;;;;;;;;9.90;99.90;;;;;;5076896;28;20458;-61
2021/12/15 01:20:18;;;;;;;;;;;9.80;99.90;;;;;;5079890;28;19973;-61
2021/12/15 01:22:46;;;;;;;;;;;9.90;99.90;;;;;;5082750;28;20367;-61
2021/12/15 01:25:11;;;;;;;;;;;9.80;99.90;;;;;;5080863;28;19999;-61
2021/12/15 01:27:37;;;;;;;;;;;9.80;99.90;;;;;;5083166;28;19911;-61
2021/12/15 01:30:04;;;;;;;;;;;9.70;99.90;;;;;;5081992;28;20049;-61
2021/12/15 01:32:29;;;;;;;;;;;9.60;99.90;;;;;;5081708;28;19916;-61
2021/12/15 01:34:55;;;;;;;;;;;9.80;99.90;;;;;;5081830;28;19919;-60
2021/12/15 01:37:20;;;;;;;;;;;9.70;99.90;;;;;;5077527;28;20203;-61
2021/12/15 01:39:47;;;;;;;;;;;9.80;99.90;;;;;;5083309;28;20073;-60
2021/12/15 01:42:12;;;;;;;;;;;9.70;99.90;;;;;;5080520;28;20363;-61
2021/12/15 01:47:23;;;;;;;;;;;9.60;99.90;;;;;;5080588;28;20009;-61
2021/12/15 01:49:50;;;;;;;;;;;9.50;99.90;;;;;;5083289;28;20369;-61
2021/12/15 01:52:21;;;;;;;;;;;9.50;99.90;;;;;;5082676;28;19916;-61
2021/12/15 01:54:50;;;;;;;;;;;9.50;99.90;;;;;;5083286;28;20383;-61
2021/12/15 01:57:16;;;;;;;;;;;9.40;99.90;;;;;;5081236;28;19962;-61
2021/12/15 01:59:43;;;;;;;;;;;9.40;99.90;;;;;;5079372;28;19924;-61
2021/12/15 02:02:08;;;;;;;;;;;9.50;99.90;;;;;;5081116;28;19912;-61
2021/12/15 02:04:34;;;;;;;;;;;9.50;99.90;;;;;;5081447;28;19930;-60
2021/12/15 02:07:00;;;;;;;;;;;9.40;99.90;;;;;;5082898;28;19908;-61
2021/12/15 02:10:08;;;;;;;;;;;9.30;99.90;;;;;;5082021;28;20525;-61
2021/12/15 02:12:17;;;;;;;;;;;9.20;99.90;;;;;;5078604;28;20003;-61
2021/12/15 02:14:43;;;;;;;;;;;9.20;99.90;;;;;;5080696;28;19919;-61
2021/12/15 02:17:08;;;;;;;;;;;9.10;99.90;;;;;;5080533;28;20256;-61
2021/12/15 02:19:34;;;;;;;;;;;9.20;99.90;;;;;;5082456;28;20363;-61
2021/12/15 02:21:59;;;;;;;;;;;9.20;99.90;;;;;;5074218;28;19912;-61
2021/12/15 02:24:26;;;;;;;;;;;9.30;99.90;;;;;;5081192;28;19948;-61
2021/12/15 02:26:57;;;;;;;;;;;9.30;99.90;;;;;;5082100;28;19908;-61
2021/12/15 02:29:23;;;;;;;;;;;9.40;99.90;;;;;;5082142;28;19920;-61
2021/12/15 02:39:34;;;;;;;;;;;9.40;99.90;;;;;;5082650;28;20676;-61
2021/12/15 02:41:59;;;;;;;;;;;9.40;99.90;;;;;;5081706;28;19915;-61
2021/12/15 02:44:25;;;;;;;;;;;9.40;99.90;;;;;;5078065;28;20325;-61
2021/12/15 02:46:51;;;;;;;;;;;9.40;99.90;;;;;;5079781;28;20409;-60
2021/12/15 02:49:20;;;;;;;;;;;9.30;99.90;;;;;;5074305;28;19912;-61
2021/12/15 02:51:47;;;;;;;;;;;9.30;99.90;;;;;;5079227;28;19920;-61
2021/12/15 02:54:13;;;;;;;;;;;9.30;99.90;;;;;;5078377;28;19916;-61
2021/12/15 02:56:40;;;;;;;;;;;9.30;99.90;;;;;;5079727;28;19920;-61
2021/12/15 02:59:07;;;;;;;;;;;9.40;99.90;;;;;;5081274;28;19908;-60
2021/12/15 03:02:05;;;;;;;;;;;9.30;99.90;;;;;;5079337;28;19927;-61
2021/12/15 03:04:49;;;;;;;;;;;9.30;99.90;;;;;;5081454;28;20458;-61
2021/12/15 03:07:33;;;;;;;;;;;9.30;99.90;;;;;;5083171;28;20370;-61
2021/12/15 03:15:33;;;;;;;;;;;9.20;99.90;;;;;;5080351;28;20354;-61
2021/12/15 03:18:07;;;;;;;;;;;9.30;99.90;;;;;;5077176;28;19919;-61
2021/12/15 03:20:35;;;;;;;;;;;9.20;99.90;;;;;;5082181;28;20523;-60
2021/12/15 03:23:01;;;;;;;;;;;9.30;99.90;;;;;;5081862;28;20351;-60
2021/12/15 03:25:29;;;;;;;;;;;9.30;99.90;;;;;;5081365;28;20888;-61
2021/12/15 03:33:56;;;;;;;;;;;9.20;99.90;;;;;;5078789;28;20006;-61
2021/12/15 03:36:23;;;;;;;;;;;9.30;99.90;;;;;;5077562;28;19912;-61
2021/12/15 03:38:49;;;;;;;;;;;9.30;99.90;;;;;;5081532;28;19912;-61
2021/12/15 03:41:14;;;;;;;;;;;9.30;99.90;;;;;;5080466;28;19919;-60
2021/12/15 03:43:40;;;;;;;;;;;9.30;99.90;;;;;;5084635;28;19914;-61
2021/12/15 03:46:11;;;;;;;;;;;9.30;99.90;;;;;;5073677;28;20330;-60
2021/12/15 03:48:38;;;;;;;;;;;9.30;99.90;;;;;;5082473;28;19916;-61
2021/12/15 03:51:04;;;;;;;;;;;9.30;99.90;;;;;;5079483;28;19934;-61
2021/12/15 03:53:30;;;;;;;;;;;9.40;99.90;;;;;;5080370;28;19926;-60
2021/12/15 03:55:56;;;;;;;;;;;9.30;99.90;;;;;;5085179;28;20361;-60
2021/12/15 03:58:24;;;;;;;;;;;9.40;99.90;;;;;;5081484;28;20373;-61
2021/12/15 04:00:53;;;;;;;;;;;9.40;99.90;;;;;;5078705;28;19916;-60
2021/12/15 04:03:25;;;;;;;;;;;9.40;99.90;;;;;;5083022;28;20010;-61
2021/12/15 04:05:51;;;;;;;;;;;9.40;99.90;;;;;;5082016;28;20165;-61
2021/12/15 04:08:17;;;;;;;;;;;9.40;99.90;;;;;;5079362;28;19943;-61
2021/12/15 04:10:43;;;;;;;;;;;9.40;99.90;;;;;;5081561;28;20275;-60
2021/12/15 04:13:09;;;;;;;;;;;9.30;99.90;;;;;;5081492;28;19920;-61
2021/12/15 04:15:43;;;;;;;;;;;9.20;99.90;;;;;;5080000;28;20011;-61
2021/12/15 04:18:09;;;;;;;;;;;9.30;99.90;;;;;;5082192;28;20390;-60
2021/12/15 04:20:36;;;;;;;;;;;9.40;99.90;;;;;;5085441;28;19912;-61
2021/12/15 04:23:02;;;;;;;;;;;9.50;99.90;;;;;;5080853;28;19912;-61
2021/12/15 04:25:30;;;;;;;;;;;9.40;99.90;;;;;;5085035;28;19912;-60
2021/12/15 04:27:58;;;;;;;;;;;9.30;99.90;;;;;;5084456;28;19908;-60
2021/12/15 04:30:24;;;;;;;;;;;9.40;99.90;;;;;;5081219;28;20002;-60
2021/12/15 04:32:50;;;;;;;;;;;9.40;99.90;;;;;;5080040;28;19924;-60
2021/12/15 04:35:16;;;;;;;;;;;9.40;99.90;;;;;;5083970;28;19912;-60
2021/12/15 04:37:43;;;;;;;;;;;9.30;99.90;;;;;;5082351;28;20379;-61
2021/12/15 04:40:10;;;;;;;;;;;9.40;99.90;;;;;;5082755;28;21088;-60
2021/12/15 04:42:38;;;;;;;;;;;9.40;99.90;;;;;;5084361;28;19908;-60
2021/12/15 04:45:04;;;;;;;;;;;9.30;99.90;;;;;;5084272;28;19912;-61
2021/12/15 04:47:30;;;;;;;;;;;9.40;99.90;;;;;;5080728;28;20332;-60
2021/12/15 04:49:56;;;;;;;;;;;9.50;99.90;;;;;;5083083;28;20000;-60
2021/12/15 04:52:23;;;;;;;;;;;9.50;99.90;;;;;;5078856;28;19923;-60
2021/12/15 04:54:48;;;;;;;;;;;9.40;99.90;;;;;;5082901;28;19908;-60
2021/12/15 04:57:14;;;;;;;;;;;9.30;99.90;;;;;;5084582;28;19923;-60
2021/12/15 04:59:41;;;;;;;;;;;9.40;99.90;;;;;;5083099;28;19915;-60
2021/12/15 05:02:07;;;;;;;;;;;9.30;99.90;;;;;;5082048;28;20436;-61
2021/12/15 05:04:33;;;;;;;;;;;9.40;99.90;;;;;;5083100;28;20367;-60
2021/12/15 05:06:59;;;;;;;;;;;9.40;99.90;;;;;;5084482;28;19953;-60
2021/12/15 05:09:25;;;;;;;;;;;9.50;99.90;;;;;;5082838;28;19908;-60
2021/12/15 05:11:50;;;;;;;;;;;9.40;99.90;;;;;;5083815;28;19908;-60
2021/12/15 05:14:17;;;;;;;;;;;9.40;99.90;;;;;;5081523;28;19935;-60
2021/12/15 05:16:42;;;;;;;;;;;9.30;99.90;;;;;;5082621;28;19919;-60
2021/12/15 05:19:08;;;;;;;;;;;9.30;99.90;;;;;;5080849;28;19994;-61
2021/12/15 05:21:33;;;;;;;;;;;9.30;99.90;;;;;;5083835;28;19908;-60
2021/12/15 05:24:08;;;;;;;;;;;9.50;99.90;;;;;;5083807;28;20449;-60
2021/12/15 05:26:33;;;;;;;;;;;9.50;99.90;;;;;;5081342;28;19938;-61
2021/12/15 05:28:59;;;;;;;;;;;9.50;99.90;;;;;;5083757;28;20326;-60
2021/12/15 05:31:24;;;;;;;;;;;9.50;99.90;;;;;;5082287;28;19923;-60
2021/12/15 05:33:50;;;;;;;;;;;9.40;99.90;;;;;;5077419;28;19916;-60
2021/12/15 05:36:15;;;;;;;;;;;9.20;99.90;;;;;;5079826;28;20263;-60
2021/12/15 05:38:41;;;;;;;;;;;9.30;99.90;;;;;;5082665;28;19908;-60
2021/12/15 05:41:06;;;;;;;;;;;9.40;99.90;;;;;;5083396;28;19912;-60
2021/12/15 05:43:32;;;;;;;;;;;9.40;99.90;;;;;;5082772;28;19912;-60
2021/12/15 05:45:57;;;;;;;;;;;9.40;99.90;;;;;;5054913;28;19924;-60
2021/12/15 05:48:23;;;;;;;;;;;9.40;99.90;;;;;;5080958;28;19912;-60
2021/12/15 05:50:50;;;;;;;;;;;9.40;99.90;;;;;;5081172;28;19916;-60
2021/12/15 05:53:16;;;;;;;;;;;9.30;99.90;;;;;;5082228;28;19923;-60
2021/12/15 05:55:42;;;;;;;;;;;9.30;99.90;;;;;;5083147;28;19916;-60
2021/12/15 05:58:09;;;;;;;;;;;9.40;99.90;;;;;;5078341;28;19957;-60
2021/12/15 06:00:35;;;;;;;;;;;9.40;99.90;;;;;;5080099;28;19926;-60
2021/12/15 06:03:02;;;;;;;;;;;9.30;99.90;;;;;;5080018;28;20282;-62
2021/12/15 06:05:27;;;;;;;;;;;9.40;99.90;;;;;;5079248;28;19915;-60
2021/12/15 06:07:53;;;;;;;;;;;9.40;99.90;;;;;;5080479;28;20119;-60
2021/12/15 06:10:21;;;;;;;;;;;9.50;99.90;;;;;;5082860;28;20015;-60
2021/12/15 06:12:48;;;;;;;;;;;9.40;99.90;;;;;;5080339;28;20046;-60
2021/12/15 06:15:20;;;;;;;;;;;9.50;99.90;;;;;;5076770;28;20268;-60
2021/12/15 06:17:46;;;;;;;;;;;9.30;99.90;;;;;;5076729;28;19912;-61
2021/12/15 06:20:12;;;;;;;;;;;9.20;99.90;;;;;;5079022;28;19912;-60
2021/12/15 06:22:40;;;;;;;;;;;9.30;99.90;;;;;;5078793;28;19966;-60
2021/12/15 06:25:05;;;;;;;;;;;9.30;99.90;;;;;;5077413;28;20382;-60
2021/12/15 06:27:35;;;;;;;;;;;9.40;99.90;;;;;;5077660;28;20011;-60
2021/12/15 06:30:00;;;;;;;;;;;9.40;99.90;;;;;;5079000;28;19912;-60
2021/12/15 06:32:27;;;;;;;;;;;9.30;99.90;;;;;;5090302;28;19931;-61
2021/12/15 06:34:52;;;;;;;;;;;9.40;99.90;;;;;;5079131;28;20236;-60
2021/12/15 06:37:18;;;;;;;;;;;9.40;99.90;;;;;;5076800;28;20222;-61
2021/12/15 06:39:43;;;;;;;;;;;9.40;99.90;;;;;;5075307;28;19916;-60
2021/12/15 06:42:09;;;;;;;;;;;9.40;99.90;;;;;;5078502;28;20508;-60
2021/12/15 06:44:35;;;;;;;;;;;9.40;99.90;;;;;;5078896;28;19912;-61
2021/12/15 07:00:27;;;;;;;;;;;9.50;99.90;;;;;;5075002;28;19995;-60
2021/12/15 07:02:53;;;;;;;;;;;9.60;99.90;;;;;;5076303;28;19911;-60
2021/12/15 07:05:19;;;;;;;;;;;9.60;99.90;;;;;;5082536;28;19908;-60
2021/12/15 07:07:45;;;;;;;;;;;9.60;99.90;;;;;;5082389;28;19912;-61
2021/12/15 07:10:13;;;;;;;;;;;9.50;99.90;;;;;;5074319;28;20445;-61
2021/12/15 07:12:38;;;;;;;;;;;9.50;99.90;;;;;;5080857;28;19999;-60
2021/12/15 07:15:05;;;;;;;;;;;9.50;99.90;;;;;;5080902;28;20089;-60
2021/12/15 07:17:30;;;;;;;;;;;9.50;99.90;;;;;;5080513;28;20395;-60
2021/12/15 07:22:33;;;;;;;;;;;9.40;99.90;;;;;;5084898;28;19959;-60
2021/12/15 07:25:00;;;;;;;;;;;9.50;99.90;;;;;;5084723;28;19916;-60
2021/12/15 07:27:25;;;;;;;;;;;9.60;99.90;;;;;;5083095;28;20287;-61
2021/12/15 07:29:51;;;;;;;;;;;9.50;99.90;;;;;;5082848;28;19916;-61
2021/12/15 07:32:17;;;;;;;;;;;9.50;99.90;;;;;;5084512;28;19912;-61
2021/12/15 07:34:42;;;;;;;;;;;9.50;99.90;;;;;;5082947;28;20367;-61
2021/12/15 07:37:08;;;;;;;;;;;9.50;99.90;;;;;;5081609;28;19962;-61
2021/12/15 07:39:35;;;;;;;;;;;9.40;99.90;;;;;;5083516;28;20453;-62
2021/12/15 07:42:11;;;;;;;;;;;9.40;99.90;;;;;;5084227;28;20403;-62
2021/12/15 07:44:38;;;;;;;;;;;9.40;99.90;;;;;;5083576;28;20294;-62
2021/12/15 07:47:04;;;;;;;;;;;9.50;99.90;;;;;;5081718;28;19916;-62
2021/12/15 07:49:30;;;;;;;;;;;9.50;99.90;;;;;;5082295;28;19912;-61
2021/12/15 07:52:04;;;;;;;;;;;9.60;99.90;;;;;;5081763;28;20301;-62
2021/12/15 07:54:32;;;;;;;;;;;9.70;99.90;;;;;;5083532;28;19915;-62
2021/12/15 07:56:58;;;;;;;;;;;9.60;99.90;;;;;;5085995;28;20416;-62
2021/12/15 07:59:23;;;;;;;;;;;9.50;99.90;;;;;;5073678;28;19919;-62
2021/12/15 08:01:51;;;;;;;;;;;9.60;99.90;;;;;;5081769;28;19912;-61
2021/12/15 08:04:17;;;;;;;;;;;9.70;99.90;;;;;;5078604;28;19931;-62
2021/12/15 08:06:45;;;;;;;;;;;9.70;99.90;;;;;;5079663;28;19912;-62
2021/12/15 08:09:11;;;;;;;;;;;9.70;99.90;;;;;;5081881;28;19919;-62
2021/12/15 08:11:38;;;;;;;;;;;9.70;99.90;;;;;;5082586;28;20022;-62
2021/12/15 08:14:03;;;;;;;;;;;9.70;99.90;;;;;;5080923;28;19913;-62
2021/12/15 08:16:32;;;;;;;;;;;9.60;99.90;;;;;;5081439;28;19916;-62
2021/12/15 08:18:58;;;;;;;;;;;9.60;99.90;;;;;;5084297;28;20015;-62
2021/12/15 08:21:23;;;;;;;;;;;9.60;99.90;;;;;;5085049;28;20101;-62
2021/12/15 08:23:49;;;;;;;;;;;9.50;99.90;;;;;;5084739;28;19920;-63
2021/12/15 08:26:14;;;;;;;;;;;9.50;99.90;;;;;;5081293;28;19908;-63
2021/12/15 08:28:40;;;;;;;;;;;9.50;99.90;;;;;;5077895;28;20323;-62
2021/12/15 08:31:06;;;;;;;;;;;9.50;99.90;;;;;;5080428;28;19919;-62
2021/12/15 08:33:32;;;;;;;;;;;9.50;99.90;;;;;;5078232;28;19958;-62
2021/12/15 08:36:01;;;;;;;;;;;9.50;99.90;;;;;;5084628;28;19948;-62
2021/12/15 08:38:28;;;;;;;;;;;9.50;99.90;;;;;;5082366;28;19908;-63
2021/12/15 08:40:54;;;;;;;;;;;9.60;99.90;;;;;;5085748;28;19942;-61
2021/12/15 08:43:21;;;;;;;;;;;9.60;99.90;;;;;;5081796;28;19908;-62
2021/12/15 08:46:06;;;;;;;;;;;9.60;99.90;;;;;;5077940;28;20287;-63
2021/12/15 08:48:34;;;;;;;;;;;9.70;99.90;;;;;;5078688;28;19920;-62
2021/12/15 08:50:59;;;;;;;;;;;9.80;99.90;;;;;;5081245;28;19916;-62
2021/12/15 08:53:28;;;;;;;;;;;9.80;99.90;;;;;;5082217;28;19919;-62
2021/12/15 08:55:54;;;;;;;;;;;9.80;99.90;;;;;;5078239;28;20483;-62
2021/12/15 08:58:20;;;;;;;;;;;9.70;99.90;;;;;;5079240;28;19999;-62
2021/12/15 09:00:47;;;;;;;;;;;9.70;99.90;;;;;;5076254;28;20038;-62
2021/12/15 09:03:13;;;;;;;;;;;9.70;99.90;;;;;;5081850;28;19908;-62
2021/12/15 09:05:39;;;;;;;;;;;9.80;99.90;;;;;;5083596;28;19916;-61
2021/12/15 09:08:05;;;;;;;;;;;9.80;99.90;;;;;;5081779;28;19921;-62
2021/12/15 09:10:32;;;;;;;;;;;9.70;99.90;;;;;;5084438;28;19915;-63
2021/12/15 09:12:58;;;;;;;;;;;9.70;99.90;;;;;;5079252;28;20107;-63
2021/12/15 09:15:24;;;;;;;;;;;9.70;99.90;;;;;;5081931;28;20011;-62
2021/12/15 09:17:49;;;;;;;;;;;9.70;99.90;;;;;;5081754;28;19915;-63
2021/12/15 09:20:17;;;;;;;;;;;9.70;99.90;;;;;;5083816;28;19921;-62
2021/12/15 09:22:42;;;;;;;;;;;9.80;99.90;;;;;;5083786;28;19911;-63
2021/12/15 09:25:10;;;;;;;;;;;9.80;99.90;;;;;;5084352;28;20274;-63
2021/12/15 09:27:37;;;;;;;;;;;9.80;99.90;;;;;;5077260;28;19936;-62
2021/12/15 09:30:07;;;;;;;;;;;9.80;99.90;;;;;;5075329;28;20394;-62
2021/12/15 09:32:32;;;;;;;;;;;9.80;99.90;;;;;;5081027;28;20263;-63
2021/12/15 09:34:58;;;;;;;;;;;9.80;99.90;;;;;;5079899;28;19920;-62
2021/12/15 09:37:23;;;;;;;;;;;9.80;99.90;;;;;;5083229;28;20095;-63
2021/12/15 09:39:49;;;;;;;;;;;9.80;99.90;;;;;;5079657;28;20481;-62
2021/12/15 09:42:19;;;;;;;;;;;9.90;99.90;;;;;;5080638;28;19912;-63
2021/12/15 09:44:45;;;;;;;;;;;10.00;99.90;;;;;;5082825;28;19915;-63
2021/12/15 09:47:18;;;;;;;;;;;9.90;99.90;;;;;;5080632;28;19912;-63
2021/12/15 10:03:34;;;;;;;;;;;10.00;99.90;;;;;;5080261;28;19959;-62
2021/12/15 10:11:44;;;;;;;;;;;9.90;99.90;;;;;;5083894;28;19995;-62
2021/12/15 10:19:39;;;;;;;;;;;9.90;99.90;;;;;;5083354;28;20061;-62
2021/12/15 10:22:05;;;;;;;;;;;9.90;99.90;;;;;;5083000;28;19950;-62
2021/12/15 10:24:34;;;;;;;;;;;9.90;99.90;;;;;;5081547;28;20406;-63
2021/12/15 10:27:03;;;;;;;;;;;10.00;99.90;;;;;;5080940;28;19908;-62
2021/12/15 10:29:28;;;;;;;;;;;9.90;99.90;;;;;;5078678;28;19908;-62
2021/12/15 10:32:03;;;;;;;;;;;10.00;99.90;;;;;;5080250;28;19999;-62
2021/12/15 10:34:29;;;;;;;;;;;10.00;99.90;;;;;;5078965;28;20006;-62
2021/12/15 10:36:55;;;;;;;;;;;10.10;99.90;;;;;;5079712;28;19912;-62
2021/12/15 10:39:22;;;;;;;;;;;10.10;99.90;;;;;;5071542;28;19976;-63
2021/12/15 10:41:51;;;;;;;;;;;10.10;99.90;;;;;;5082263;28;20277;-62
2021/12/15 10:44:21;;;;;;;;;;;10.20;99.90;;;;;;5082223;28;19908;-63
2021/12/15 10:46:52;;;;;;;;;;;10.10;99.90;;;;;;5077537;28;20787;-63
2021/12/15 10:49:19;;;;;;;;;;;10.10;99.90;;;;;;5081919;28;20020;-63
2021/12/15 10:51:47;;;;;;;;;;;10.20;99.90;;;;;;5083958;28;19920;-63
2021/12/15 10:54:19;;;;;;;;;;;10.20;99.90;;;;;;5077927;28;19919;-63
2021/12/15 10:57:05;;;;;;;;;;;10.20;99.90;;;;;;5086362;28;20661;-62
2021/12/15 10:59:33;;;;;;;;;;;10.20;99.90;;;;;;5079114;28;20325;-63
2021/12/15 11:02:05;;;;;;;;;;;10.20;99.90;;;;;;5077224;28;19911;-62
2021/12/15 11:04:51;;;;;;;;;;;10.20;99.90;;;;;;5078176;28;20389;-62
2021/12/15 11:07:16;;;;;;;;;;;10.20;99.90;;;;;;5086090;28;19908;-62
2021/12/15 11:09:47;;;;;;;;;;;10.20;99.90;;;;;;5082451;28;20381;-63
2021/12/15 11:12:18;;;;;;;;;;;10.20;99.90;;;;;;5084608;28;19908;-62
2021/12/15 11:14:46;;;;;;;;;;;10.20;99.90;;;;;;5080256;28;20406;-63
2021/12/15 11:17:25;;;;;;;;;;;10.30;99.90;;;;;;5079070;28;20010;-62
2021/12/15 11:19:53;;;;;;;;;;;10.30;99.90;;;;;;5080413;28;19912;-62
2021/12/15 11:22:39;;;;;;;;;;;10.30;99.90;;;;;;5080885;28;19908;-63
2021/12/15 11:25:07;;;;;;;;;;;10.30;99.90;;;;;;5078095;28;19971;-62
2021/12/15 11:27:32;;;;;;;;;;;10.20;99.90;;;;;;5081824;28;19920;-63
2021/12/15 11:29:58;;;;;;;;;;;10.10;99.90;;;;;;5079269;28;19919;-62
2021/12/15 11:32:37;;;;;;;;;;;10.20;99.90;;;;;;5081095;28;19991;-62
2021/12/15 11:35:04;;;;;;;;;;;10.20;99.90;;;;;;5081059;28;19943;-62
2021/12/15 11:37:47;;;;;;;;;;;10.20;99.90;;;;;;5084138;28;20034;-63
2021/12/15 11:40:13;;;;;;;;;;;10.20;99.90;;;;;;5082542;28;19924;-62
2021/12/15 11:42:39;;;;;;;;;;;10.20;99.90;;;;;;5082387;28;20005;-63
2021/12/15 11:45:06;;;;;;;;;;;10.20;99.90;;;;;;5081917;28;19916;-63
2021/12/15 11:47:33;;;;;;;;;;;10.20;99.90;;;;;;5078555;28;19969;-62
2021/12/15 11:50:12;;;;;;;;;;;10.20;99.90;;;;;;5082863;28;19912;-63
2021/12/15 11:52:39;;;;;;;;;;;10.20;99.90;;;;;;5085867;28;19947;-63
2021/12/15 11:55:05;;;;;;;;;;;10.10;99.90;;;;;;5076845;28;20287;-62
2021/12/15 11:57:30;;;;;;;;;;;10.20;99.90;;;;;;5073883;28;19939;-62
2021/12/15 11:59:59;;;;;;;;;;;10.20;99.90;;;;;;5085587;28;19912;-63
2021/12/15 12:02:26;;;;;;;;;;;10.30;99.90;;;;;;5078381;28;20298;-63
2021/12/15 12:04:59;;;;;;;;;;;10.30;99.90;;;;;;5083710;28;19916;-63
2021/12/15 12:07:33;;;;;;;;;;;10.30;99.90;;;;;;5082742;28;19959;-63
2021/12/15 12:09:59;;;;;;;;;;;10.30;99.90;;;;;;5082159;28;20210;-63
2021/12/15 12:12:30;;;;;;;;;;;10.30;99.90;;;;;;5083505;28;19943;-63
2021/12/15 12:14:55;;;;;;;;;;;10.30;99.90;;;;;;5079284;28;20558;-63
2021/12/15 12:17:26;;;;;;;;;;;10.40;99.90;;;;;;5078993;28;19942;-63
2021/12/15 12:19:51;;;;;;;;;;;10.40;99.90;;;;;;5081335;28;20912;-63
2021/12/15 12:22:18;;;;;;;;;;;10.40;99.90;;;;;;5078295;28;19914;-63
2021/12/15 12:24:45;;;;;;;;;;;10.40;99.90;;;;;;5083818;28;19911;-63
2021/12/15 12:27:11;;;;;;;;;;;10.40;99.90;;;;;;5084965;28;20431;-64
2021/12/15 12:29:36;;;;;;;;;;;10.50;99.90;;;;;;5084198;28;20081;-63
2021/12/15 12:32:02;;;;;;;;;;;10.50;99.90;;;;;;5080365;28;19946;-63
2021/12/15 12:34:28;;;;;;;;;;;10.40;99.90;;;;;;5078057;28;20185;-63
2021/12/15 12:36:53;;;;;;;;;;;10.40;99.90;;;;;;5084424;28;19930;-63
2021/12/15 12:39:22;;;;;;;;;;;10.40;99.90;;;;;;5084508;28;19957;-63
2021/12/15 12:41:49;;;;;;;;;;;10.40;99.90;;;;;;5084888;28;20300;-63
2021/12/15 12:44:15;;;;;;;;;;;10.40;99.90;;;;;;5081468;28;19922;-62
2021/12/15 12:46:44;;;;;;;;;;;10.40;99.90;;;;;;5078937;28;19912;-63
2021/12/15 12:49:36;;;;;;;;;;;10.40;99.90;;;;;;5081551;28;19991;-63
2021/12/15 12:58:03;;;;;;;;;;;10.40;99.90;;;;;;5080472;28;20419;-63
2021/12/15 13:00:36;;;;;;;;;;;10.40;99.90;;;;;;5077148;28;19965;-63
2021/12/15 13:03:05;;;;;;;;;;;10.40;99.90;;;;;;5080325;28;20017;-63
2021/12/15 13:05:49;;;;;;;;;;;10.40;99.90;;;;;;5081546;28;20409;-63
2021/12/15 13:08:30;;;;;;;;;;;10.40;99.90;;;;;;5077373;28;19915;-63
2021/12/15 13:11:06;;;;;;;;;;;10.40;99.90;;;;;;5081696;28;20497;-63
2021/12/15 13:13:31;;;;;;;;;;;10.50;99.90;;;;;;5089611;28;19951;-63
2021/12/15 13:15:56;;;;;;;;;;;10.40;99.90;;;;;;5080168;28;19946;-63
2021/12/15 13:18:22;;;;;;;;;;;10.50;99.90;;;;;;5083829;28;19938;-63
2021/12/15 13:20:56;;;;;;;;;;;10.40;99.90;;;;;;5083537;28;20627;-63
2021/12/15 13:23:43;;;;;;;;;;;10.40;99.90;;;;;;5078596;28;19915;-63
2021/12/15 13:29:13;;;;;;;;;;;10.50;99.90;;;;;;5079997;28;19915;-63
2021/12/15 13:31:50;;;;;;;;;;;10.50;99.90;;;;;;5078366;28;19916;-63
2021/12/15 13:34:32;;;;;;;;;;;10.60;99.90;;;;;;5074717;28;20522;-63
2021/12/15 13:36:59;;;;;;;;;;;10.50;99.90;;;;;;5073208;28;20028;-64
2021/12/15 13:39:25;;;;;;;;;;;10.50;99.90;;;;;;5082944;28;20409;-63
2021/12/15 13:44:43;;;;;;;;;;;10.60;99.90;;;;;;5077840;28;19955;-64
2021/12/15 13:47:09;;;;;;;;;;;10.60;99.90;;;;;;5081664;28;19957;-64
2021/12/15 13:49:44;;;;;;;;;;;10.50;99.90;;;;;;5075467;28;19917;-63
2021/12/15 13:52:30;;;;;;;;;;;10.50;99.90;;;;;;5076214;28;19931;-63
2021/12/15 13:55:02;;;;;;;;;;;10.50;99.90;;;;;;5080992;28;20002;-63
2021/12/15 13:57:30;;;;;;;;;;;10.60;99.90;;;;;;5076906;28;19954;-63
2021/12/15 14:00:19;;;;;;;;;;;10.50;99.90;;;;;;5084089;28;20280;-63
2021/12/15 14:02:55;;;;;;;;;;;10.50;99.90;;;;;;5075200;28;19912;-64
2021/12/15 14:05:43;;;;;;;;;;;10.50;99.90;;;;;;5080622;28;20440;-63
2021/12/15 14:08:14;;;;;;;;;;;10.50;99.90;;;;;;5075361;28;20260;-63
2021/12/15 14:10:43;;;;;;;;;;;10.40;99.90;;;;;;5081640;28;20001;-63
2021/12/15 14:13:08;;;;;;;;;;;10.50;99.90;;;;;;5077150;28;19916;-63
2021/12/15 14:15:37;;;;;;;;;;;10.60;99.90;;;;;;5077394;28;19912;-63
2021/12/15 14:18:09;;;;;;;;;;;10.60;99.90;;;;;;5078447;28;20367;-64
2021/12/15 14:20:39;;;;;;;;;;;10.60;99.90;;;;;;5081498;28;20507;-63
2021/12/15 14:23:10;;;;;;;;;;;10.70;99.90;;;;;;5078642;28;20231;-63
2021/12/15 14:25:37;;;;;;;;;;;10.60;99.90;;;;;;5083652;28;19912;-63
2021/12/15 14:28:16;;;;;;;;;;;10.70;99.90;;;;;;5082268;28;20074;-64
2021/12/15 14:30:43;;;;;;;;;;;10.70;99.90;;;;;;5075020;28;19908;-63
2021/12/15 14:33:18;;;;;;;;;;;10.60;99.90;;;;;;5078669;28;19923;-63
2021/12/15 14:35:43;;;;;;;;;;;10.50;99.90;;;;;;5081802;28;19962;-63
2021/12/15 14:38:09;;;;;;;;;;;10.50;99.90;;;;;;5081069;28;19951;-64
2021/12/15 14:40:34;;;;;;;;;;;10.60;99.90;;;;;;5076723;28;19916;-63
2021/12/15 14:43:01;;;;;;;;;;;10.60;99.90;;;;;;5080660;28;20268;-63
2021/12/15 14:45:27;;;;;;;;;;;10.50;99.90;;;;;;5077742;28;20256;-63
2021/12/15 14:47:52;;;;;;;;;;;10.60;99.90;;;;;;5080902;28;19961;-63
2021/12/15 14:50:18;;;;;;;;;;;10.50;99.90;;;;;;5075346;28;19915;-63
2021/12/15 14:52:46;;;;;;;;;;;10.50;99.90;;;;;;5078547;28;19974;-63
2021/12/15 14:55:13;;;;;;;;;;;10.40;99.90;;;;;;5082469;28;20198;-63
2021/12/15 14:57:40;;;;;;;;;;;10.50;99.90;;;;;;5078084;28;19915;-63
2021/12/15 15:00:14;;;;;;;;;;;10.50;99.90;;;;;;5076704;28;20368;-64
2021/12/15 15:02:43;;;;;;;;;;;10.30;99.90;;;;;;5078987;28;19916;-63
2021/12/15 15:05:14;;;;;;;;;;;10.40;99.90;;;;;;5074583;28;19916;-63
2021/12/15 15:07:41;;;;;;;;;;;10.40;99.90;;;;;;5078535;28;19916;-64
2021/12/15 15:10:09;;;;;;;;;;;10.40;99.90;;;;;;5082191;28;19912;-63
2021/12/15 15:12:37;;;;;;;;;;;10.40;99.90;;;;;;5083175;28;19961;-63
2021/12/15 15:15:07;;;;;;;;;;;10.40;99.90;;;;;;5077551;28;19912;-63
2021/12/15 15:17:35;;;;;;;;;;;10.40;99.90;;;;;;5079545;28;20363;-63
2021/12/15 15:20:12;;;;;;;;;;;10.50;99.90;;;;;;5082533;28;19954;-64
2021/12/15 15:22:37;;;;;;;;;;;10.40;99.90;;;;;;5077742;28;20631;-63
2021/12/15 15:25:05;;;;;;;;;;;10.40;99.90;;;;;;5080546;28;19908;-63
2021/12/15 15:27:30;;;;;;;;;;;10.50;99.90;;;;;;5079263;28;19915;-64
2021/12/15 15:29:57;;;;;;;;;;;10.60;99.90;;;;;;5078957;28;19912;-63
2021/12/15 15:32:25;;;;;;;;;;;10.60;99.90;;;;;;5078599;28;19974;-64
2021/12/15 15:34:51;;;;;;;;;;;10.40;99.90;;;;;;5080569;28;19919;-64
2021/12/15 15:37:25;;;;;;;;;;;10.40;99.90;;;;;;5072924;28;20309;-63
2021/12/15 15:40:12;;;;;;;;;;;10.40;99.90;;;;;;5076941;28;20026;-64
2021/12/15 15:42:39;;;;;;;;;;;10.40;99.90;;;;;;5084517;28;19939;-63
2021/12/15 15:45:05;;;;;;;;;;;10.40;99.90;;;;;;5081771;28;20541;-64
2021/12/15 15:47:31;;;;;;;;;;;10.40;99.90;;;;;;5083813;28;20267;-64
2021/12/15 15:49:58;;;;;;;;;;;10.50;99.90;;;;;;5084650;28;19912;-63
2021/12/15 15:52:24;;;;;;;;;;;10.50;99.90;;;;;;5075127;28;20681;-64